sensor_id;sensor_type;location;lat;lon;timestamp;pressure;altitude;pressure_sealevel;temperature;humidity
61345;BME280;47216;42.656;23.232;2023-03-26T00:00:05;93440.56;;;10.38;64.83
61345;BME280;47216;42.656;23.232;2023-03-26T00:02:39;93445.03;;;10.58;63.87
61345;BME280;47216;42.656;23.232;2023-03-26T00:05:07;93445.03;;;10.53;64.25
61345;BME280;47216;42.656;23.232;2023-03-26T00:07:36;93449.44;;;10.47;64.38
61345;BME280;47216;42.656;23.232;2023-03-26T00:10:03;93444.00;;;10.59;64.66
61345;BME280;47216;42.656;23.232;2023-03-26T00:12:31;93443.50;;;10.62;64.19
61345;BME280;47216;42.656;23.232;2023-03-26T00:14:57;93433.34;;;10.71;64.00
61345;BME280;47216;42.656;23.232;2023-03-26T00:17:24;93427.63;;;10.84;63.96
61345;BME280;47216;42.656;23.232;2023-03-26T00:19:51;93424.78;;;11.01;63.26
61345;BME280;47216;42.656;23.232;2023-03-26T00:22:18;93419.06;;;11.09;62.85
61345;BME280;47216;42.656;23.232;2023-03-26T00:24:46;93412.53;;;11.17;62.86
61345;BME280;47216;42.656;23.232;2023-03-26T00:27:15;93403.16;;;11.16;62.52
61345;BME280;47216;42.656;23.232;2023-03-26T00:29:41;93394.53;;;11.10;62.64
61345;BME280;47216;42.656;23.232;2023-03-26T00:32:09;93390.09;;;11.16;62.50
61345;BME280;47216;42.656;23.232;2023-03-26T00:34:35;93381.72;;;11.19;62.13
61345;BME280;47216;42.656;23.232;2023-03-26T00:37:05;93389.31;;;11.26;62.68
61345;BME280;47216;42.656;23.232;2023-03-26T00:39:33;93384.84;;;11.26;62.11
61345;BME280;47216;42.656;23.232;2023-03-26T00:42:03;93396.06;;;11.27;60.96
61345;BME280;47216;42.656;23.232;2023-03-26T00:44:33;93398.97;;;11.25;59.45
61345;BME280;47216;42.656;23.232;2023-03-26T00:47:00;93390.34;;;11.20;59.50
61345;BME280;47216;42.656;23.232;2023-03-26T00:49:27;93391.13;;;11.20;59.87
61345;BME280;47216;42.656;23.232;2023-03-26T00:51:55;93403.66;;;11.28;60.13
61345;BME280;47216;42.656;23.232;2023-03-26T00:54:22;93408.34;;;11.26;59.49
61345;BME280;47216;42.656;23.232;2023-03-26T00:56:48;93408.88;;;11.28;58.94
61345;BME280;47216;42.656;23.232;2023-03-26T00:59:16;93402.59;;;11.24;58.71
61345;BME280;47216;42.656;23.232;2023-03-26T01:01:43;93412.53;;;11.38;60.25
61345;BME280;47216;42.656;23.232;2023-03-26T01:04:23;93413.06;;;11.34;59.99
61345;BME280;47216;42.656;23.232;2023-03-26T01:06:52;93408.06;;;11.38;59.39
61345;BME280;47216;42.656;23.232;2023-03-26T01:09:24;93409.13;;;11.37;59.79
61345;BME280;47216;42.656;23.232;2023-03-26T01:11:55;93408.34;;;11.21;60.11
61345;BME280;47216;42.656;23.232;2023-03-26T01:14:24;93415.63;;;11.09;60.64
61345;BME280;47216;42.656;23.232;2023-03-26T01:16:52;93408.06;;;10.97;61.08
61345;BME280;47216;42.656;23.232;2023-03-26T01:19:24;93412.50;;;10.97;61.48
61345;BME280;47216;42.656;23.232;2023-03-26T01:21:53;93407.81;;;10.93;61.70
61345;BME280;47216;42.656;23.232;2023-03-26T01:24:21;93403.91;;;10.96;62.19
61345;BME280;47216;42.656;23.232;2023-03-26T01:27:17;93416.19;;;10.96;62.15
61345;BME280;47216;42.656;23.232;2023-03-26T01:29:51;93416.44;;;10.89;62.18
61345;BME280;47216;42.656;23.232;2023-03-26T01:32:32;93417.47;;;10.93;62.54
61345;BME280;47216;42.656;23.232;2023-03-26T01:35:12;93423.72;;;10.87;63.01
61345;BME280;47216;42.656;23.232;2023-03-26T01:37:50;93419.28;;;10.77;62.96
61345;BME280;47216;42.656;23.232;2023-03-26T01:40:27;93414.81;;;10.67;63.84
61345;BME280;47216;42.656;23.232;2023-03-26T01:43:00;93423.41;;;10.63;63.54
61345;BME280;47216;42.656;23.232;2023-03-26T01:45:32;93423.97;;;10.70;63.05
61345;BME280;47216;42.656;23.232;2023-03-26T01:48:00;93425.81;;;10.75;63.53
61345;BME280;47216;42.656;23.232;2023-03-26T01:50:27;93427.34;;;10.76;63.47
61345;BME280;47216;42.656;23.232;2023-03-26T01:52:54;93434.41;;;10.80;63.33
61345;BME280;47216;42.656;23.232;2023-03-26T01:55:23;93433.63;;;10.80;62.70
61345;BME280;47216;42.656;23.232;2023-03-26T01:57:59;93434.66;;;10.68;63.94
61345;BME280;47216;42.656;23.232;2023-03-26T02:00:31;93429.44;;;10.73;63.38
61345;BME280;47216;42.656;23.232;2023-03-26T02:03:09;93429.44;;;10.79;62.66
61345;BME280;47216;42.656;23.232;2023-03-26T02:05:46;93429.19;;;10.85;62.82
61345;BME280;47216;42.656;23.232;2023-03-26T02:08:20;93430.25;;;10.84;62.90
61345;BME280;47216;42.656;23.232;2023-03-26T02:10:51;93432.84;;;10.89;63.47
61345;BME280;47216;42.656;23.232;2023-03-26T02:13:22;93435.47;;;10.94;63.49
61345;BME280;47216;42.656;23.232;2023-03-26T02:15:57;93437.56;;;11.03;63.16
61345;BME280;47216;42.656;23.232;2023-03-26T02:18:25;93429.50;;;11.09;62.20
61345;BME280;47216;42.656;23.232;2023-03-26T02:21:00;93429.50;;;11.09;61.01
61345;BME280;47216;42.656;23.232;2023-03-26T02:23:27;93423.47;;;11.04;61.85
61345;BME280;47216;42.656;23.232;2023-03-26T02:25:55;93425.81;;;10.95;62.53
61345;BME280;47216;42.656;23.232;2023-03-26T02:28:22;93426.09;;;10.88;63.78
61345;BME280;47216;42.656;23.232;2023-03-26T02:30:49;93427.09;;;10.82;63.72
61345;BME280;47216;42.656;23.232;2023-03-26T02:33:16;93434.91;;;10.72;63.29
61345;BME280;47216;42.656;23.232;2023-03-26T02:35:43;93445.31;;;10.57;62.69
61345;BME280;47216;42.656;23.232;2023-03-26T02:38:10;93443.25;;;10.59;62.71
61345;BME280;47216;42.656;23.232;2023-03-26T02:40:39;93450.53;;;10.72;62.52
61345;BME280;47216;42.656;23.232;2023-03-26T02:43:08;93456.03;;;10.65;62.32
61345;BME280;47216;42.656;23.232;2023-03-26T02:45:34;93453.97;;;10.72;62.55
61345;BME280;47216;42.656;23.232;2023-03-26T02:48:01;93458.34;;;10.62;62.40
61345;BME280;47216;42.656;23.232;2023-03-26T02:50:28;93458.81;;;10.48;63.47
61345;BME280;47216;42.656;23.232;2023-03-26T02:52:57;93459.91;;;10.52;63.49
61345;BME280;47216;42.656;23.232;2023-03-26T02:55:24;93467.22;;;10.61;63.65
61345;BME280;47216;42.656;23.232;2023-03-26T02:57:51;93474.00;;;10.62;63.26
61345;BME280;47216;42.656;23.232;2023-03-26T03:00:20;93470.84;;;10.49;62.60
61345;BME280;47216;42.656;23.232;2023-03-26T03:02:47;93482.31;;;10.54;62.43
61345;BME280;47216;42.656;23.232;2023-03-26T03:05:14;93482.78;;;10.40;63.21
61345;BME280;47216;42.656;23.232;2023-03-26T03:07:42;93488.44;;;10.27;63.25
61345;BME280;47216;42.656;23.232;2023-03-26T03:10:11;93488.09;;;10.13;64.36
61345;BME280;47216;42.656;23.232;2023-03-26T03:12:40;93484.41;;;10.04;64.84
61345;BME280;47216;42.656;23.232;2023-03-26T03:15:08;93492.00;;;10.10;64.20
61345;BME280;47216;42.656;23.232;2023-03-26T03:17:36;93486.28;;;10.14;64.29
61345;BME280;47216;42.656;23.232;2023-03-26T03:20:04;93487.16;;;10.29;64.19
61345;BME280;47216;42.656;23.232;2023-03-26T03:22:33;93502.25;;;10.27;64.05
61345;BME280;47216;42.656;23.232;2023-03-26T03:25:00;93504.03;;;10.17;64.50
61345;BME280;47216;42.656;23.232;2023-03-26T03:27:27;93520.13;;;10.08;64.07
61345;BME280;47216;42.656;23.232;2023-03-26T03:29:55;93520.66;;;10.10;64.74
61345;BME280;47216;42.656;23.232;2023-03-26T03:32:23;93513.88;;;10.09;65.04
61345;BME280;47216;42.656;23.232;2023-03-26T03:34:51;93517.75;;;10.07;64.69
61345;BME280;47216;42.656;23.232;2023-03-26T03:37:19;93517.94;;;9.90;65.09
61345;BME280;47216;42.656;23.232;2023-03-26T03:39:45;93507.41;;;9.75;65.88
61345;BME280;47216;42.656;23.232;2023-03-26T03:42:12;93500.13;;;9.77;65.29
61345;BME280;47216;42.656;23.232;2023-03-26T03:44:39;93499.56;;;9.70;65.28
61345;BME280;47216;42.656;23.232;2023-03-26T03:47:06;93496.97;;;9.70;65.42
61345;BME280;47216;42.656;23.232;2023-03-26T03:49:34;93500.84;;;9.67;65.75
61345;BME280;47216;42.656;23.232;2023-03-26T03:52:03;93505.84;;;9.74;65.84
61345;BME280;47216;42.656;23.232;2023-03-26T03:54:30;93507.56;;;9.58;66.34
61345;BME280;47216;42.656;23.232;2023-03-26T03:56:56;93502.59;;;9.56;65.86
61345;BME280;47216;42.656;23.232;2023-03-26T03:59:23;93503.63;;;9.55;66.71
61345;BME280;47216;42.656;23.232;2023-03-26T04:01:50;93499.94;;;9.51;65.73
61345;BME280;47216;42.656;23.232;2023-03-26T04:04:17;93496.56;;;9.51;65.94
61345;BME280;47216;42.656;23.232;2023-03-26T04:06:45;93491.16;;;9.57;66.18
61345;BME280;47216;42.656;23.232;2023-03-26T04:09:13;93497.34;;;9.51;66.63
61345;BME280;47216;42.656;23.232;2023-03-26T04:11:40;93512.31;;;9.34;67.10
61345;BME280;47216;42.656;23.232;2023-03-26T04:14:07;93514.56;;;9.25;67.42
61345;BME280;47216;42.656;23.232;2023-03-26T04:16:34;93522.81;;;9.17;67.52
61345;BME280;47216;42.656;23.232;2023-03-26T04:19:01;93534.63;;;9.24;67.80
61345;BME280;47216;42.656;23.232;2023-03-26T04:21:29;93531.66;;;9.16;67.27
61345;BME280;47216;42.656;23.232;2023-03-26T04:23:56;93541.22;;;9.10;68.10
61345;BME280;47216;42.656;23.232;2023-03-26T04:26:24;93541.22;;;9.10;68.65
61345;BME280;47216;42.656;23.232;2023-03-26T04:28:56;93551.19;;;9.18;67.71
61345;BME280;47216;42.656;23.232;2023-03-26T04:31:26;93564.09;;;9.08;67.58
61345;BME280;47216;42.656;23.232;2023-03-26T04:34:04;93578.03;;;8.97;68.36
61345;BME280;47216;42.656;23.232;2023-03-26T04:36:33;93570.22;;;8.97;68.74
61345;BME280;47216;42.656;23.232;2023-03-26T04:39:01;93575.97;;;8.99;68.35
61345;BME280;47216;42.656;23.232;2023-03-26T04:41:30;93572.97;;;9.12;68.82
61345;BME280;47216;42.656;23.232;2023-03-26T04:43:57;93571.41;;;9.11;68.94
61345;BME280;47216;42.656;23.232;2023-03-26T04:46:26;93579.81;;;9.18;67.71
61345;BME280;47216;42.656;23.232;2023-03-26T04:48:58;93585.56;;;9.20;67.80
61345;BME280;47216;42.656;23.232;2023-03-26T04:51:32;93586.34;;;9.21;67.54
61345;BME280;47216;42.656;23.232;2023-03-26T04:54:02;93591.31;;;9.22;67.18
61345;BME280;47216;42.656;23.232;2023-03-26T04:56:38;93590.91;;;9.36;66.32
61345;BME280;47216;42.656;23.232;2023-03-26T04:59:09;93592.03;;;9.45;66.29
61345;BME280;47216;42.656;23.232;2023-03-26T05:01:38;93589.91;;;9.42;66.29
61345;BME280;47216;42.656;23.232;2023-03-26T05:04:05;93584.16;;;9.40;65.20
61345;BME280;47216;42.656;23.232;2023-03-26T05:06:32;93589.47;;;9.50;64.03
61345;BME280;47216;42.656;23.232;2023-03-26T05:08:59;93577.00;;;9.52;63.53
61345;BME280;47216;42.656;23.232;2023-03-26T05:11:26;93587.53;;;9.67;63.41
61345;BME280;47216;42.656;23.232;2023-03-26T05:13:55;93591.47;;;9.70;62.86
61345;BME280;47216;42.656;23.232;2023-03-26T05:16:22;93591.81;;;9.79;62.87
61345;BME280;47216;42.656;23.232;2023-03-26T05:18:49;93594.94;;;9.81;62.50
61345;BME280;47216;42.656;23.232;2023-03-26T05:21:17;93593.66;;;9.83;62.58
61345;BME280;47216;42.656;23.232;2023-03-26T05:23:43;93598.88;;;9.83;62.40
61345;BME280;47216;42.656;23.232;2023-03-26T05:26:10;93603.34;;;9.88;62.05
61345;BME280;47216;42.656;23.232;2023-03-26T05:28:37;93606.91;;;9.82;61.47
61345;BME280;47216;42.656;23.232;2023-03-26T05:31:06;93607.16;;;9.75;62.01
61345;BME280;47216;42.656;23.232;2023-03-26T05:33:34;93603.19;;;9.73;62.19
61345;BME280;47216;42.656;23.232;2023-03-26T05:36:03;93604.28;;;9.77;62.84
61345;BME280;47216;42.656;23.232;2023-03-26T05:38:31;93605.41;;;9.86;62.03
61345;BME280;47216;42.656;23.232;2023-03-26T05:41:00;93602.06;;;9.96;62.92
61345;BME280;47216;42.656;23.232;2023-03-26T05:43:27;93601.44;;;10.16;61.95
61345;BME280;47216;42.656;23.232;2023-03-26T05:45:54;93603.06;;;10.22;62.36
61345;BME280;47216;42.656;23.232;2023-03-26T05:48:23;93603.53;;;10.19;60.75
61345;BME280;47216;42.656;23.232;2023-03-26T05:50:51;93609.25;;;10.10;61.78
61345;BME280;47216;42.656;23.232;2023-03-26T05:53:19;93613.03;;;10.30;61.55
61345;BME280;47216;42.656;23.232;2023-03-26T05:55:47;93608.09;;;10.28;60.94
61345;BME280;47216;42.656;23.232;2023-03-26T05:58:22;93603.69;;;10.34;60.93
61345;BME280;47216;42.656;23.232;2023-03-26T06:00:55;93608.91;;;10.39;60.59
61345;BME280;47216;42.656;23.232;2023-03-26T06:03:24;93610.47;;;10.35;60.66
61345;BME280;47216;42.656;23.232;2023-03-26T06:05:51;93604.78;;;10.43;60.40
61345;BME280;47216;42.656;23.232;2023-03-26T06:08:18;93615.06;;;10.28;59.71
61345;BME280;47216;42.656;23.232;2023-03-26T06:10:45;93611.75;;;10.33;60.32
61345;BME280;47216;42.656;23.232;2023-03-26T06:13:12;93601.41;;;10.43;60.20
61345;BME280;47216;42.656;23.232;2023-03-26T06:15:40;93595.25;;;10.64;59.48
61345;BME280;47216;42.656;23.232;2023-03-26T06:18:08;93602.63;;;10.78;58.64
61345;BME280;47216;42.656;23.232;2023-03-26T06:20:36;93595.81;;;10.77;57.74
61345;BME280;47216;42.656;23.232;2023-03-26T06:23:03;93594.06;;;10.92;57.81
61345;BME280;47216;42.656;23.232;2023-03-26T06:25:29;93596.13;;;10.90;58.28
61345;BME280;47216;42.656;23.232;2023-03-26T06:27:56;93600.09;;;10.93;57.84
61345;BME280;47216;42.656;23.232;2023-03-26T06:30:23;93609.97;;;10.91;58.35
61345;BME280;47216;42.656;23.232;2023-03-26T06:32:50;93595.50;;;10.63;57.80
61345;BME280;47216;42.656;23.232;2023-03-26T06:35:17;93597.25;;;10.47;58.04
61345;BME280;47216;42.656;23.232;2023-03-26T06:37:45;93590.78;;;10.60;58.44
61345;BME280;47216;42.656;23.232;2023-03-26T06:40:12;93583.00;;;10.65;57.92
61345;BME280;47216;42.656;23.232;2023-03-26T06:42:39;93585.06;;;10.63;58.16
61345;BME280;47216;42.656;23.232;2023-03-26T06:45:07;93579.38;;;10.76;57.34
61345;BME280;47216;42.656;23.232;2023-03-26T06:47:34;93581.97;;;10.71;57.24
61345;BME280;47216;42.656;23.232;2023-03-26T06:50:00;93584.03;;;10.59;57.46
61345;BME280;47216;42.656;23.232;2023-03-26T06:52:27;93591.63;;;10.65;57.42
61345;BME280;47216;42.656;23.232;2023-03-26T06:54:55;93605.69;;;10.69;57.41
61345;BME280;47216;42.656;23.232;2023-03-26T06:57:22;93607.59;;;10.79;57.31
61345;BME280;47216;42.656;23.232;2023-03-26T06:59:49;93594.88;;;10.93;57.38
61345;BME280;47216;42.656;23.232;2023-03-26T07:02:16;93609.75;;;10.98;57.04
61345;BME280;47216;42.656;23.232;2023-03-26T07:04:42;93616.06;;;11.07;56.68
61345;BME280;47216;42.656;23.232;2023-03-26T07:07:09;93619.66;;;11.01;56.69
61345;BME280;47216;42.656;23.232;2023-03-26T07:09:37;93614.44;;;10.96;56.41
61345;BME280;47216;42.656;23.232;2023-03-26T07:12:06;93614.72;;;11.04;56.21
61345;BME280;47216;42.656;23.232;2023-03-26T07:14:33;93609.56;;;11.20;56.61
61345;BME280;47216;42.656;23.232;2023-03-26T07:17:02;93605.66;;;11.27;56.35
61345;BME280;47216;42.656;23.232;2023-03-26T07:19:29;93607.78;;;11.35;55.54
61345;BME280;47216;42.656;23.232;2023-03-26T07:21:56;93602.06;;;11.54;55.86
61345;BME280;47216;42.656;23.232;2023-03-26T07:24:24;93596.59;;;11.55;54.71
61345;BME280;47216;42.656;23.232;2023-03-26T07:26:56;93594.22;;;11.44;55.19
61345;BME280;47216;42.656;23.232;2023-03-26T07:29:33;93596.56;;;11.45;54.75
61345;BME280;47216;42.656;23.232;2023-03-26T07:32:10;93588.97;;;11.39;53.71
61345;BME280;47216;42.656;23.232;2023-03-26T07:34:45;93590.03;;;11.38;53.37
61345;BME280;47216;42.656;23.232;2023-03-26T07:37:22;93591.63;;;11.49;52.72
61345;BME280;47216;42.656;23.232;2023-03-26T07:39:53;93584.56;;;11.54;52.29
61345;BME280;47216;42.656;23.232;2023-03-26T07:42:29;93580.91;;;11.45;52.07
61345;BME280;47216;42.656;23.232;2023-03-26T07:45:12;93585.88;;;11.42;52.00
61345;BME280;47216;42.656;23.232;2023-03-26T07:47:43;93586.66;;;11.52;52.83
61345;BME280;47216;42.656;23.232;2023-03-26T07:50:14;93581.69;;;11.66;51.87
61345;BME280;47216;42.656;23.232;2023-03-26T07:52:41;93580.91;;;11.71;50.21
61345;BME280;47216;42.656;23.232;2023-03-26T07:55:12;93578.56;;;11.85;50.86
61345;BME280;47216;42.656;23.232;2023-03-26T07:57:45;93581.75;;;11.97;50.82
61345;BME280;47216;42.656;23.232;2023-03-26T08:00:20;93569.72;;;12.16;51.16
61345;BME280;47216;42.656;23.232;2023-03-26T08:03:20;93575.72;;;12.27;49.55
61345;BME280;47216;42.656;23.232;2023-03-26T08:05:58;93573.03;;;12.53;50.36
61345;BME280;47216;42.656;23.232;2023-03-26T08:08:31;93566.00;;;12.48;48.31
61345;BME280;47216;42.656;23.232;2023-03-26T08:11:09;93562.88;;;12.41;49.46
61345;BME280;47216;42.656;23.232;2023-03-26T08:13:51;93573.03;;;12.53;48.77
61345;BME280;47216;42.656;23.232;2023-03-26T08:16:41;93576.97;;;12.45;47.83
61345;BME280;47216;42.656;23.232;2023-03-26T08:19:27;93575.41;;;12.49;47.02
61345;BME280;47216;42.656;23.232;2023-03-26T08:22:02;93580.59;;;12.65;46.07
61345;BME280;47216;42.656;23.232;2023-03-26T08:24:35;93578.44;;;12.77;45.50
61345;BME280;47216;42.656;23.232;2023-03-26T08:27:10;93585.78;;;12.75;44.81
61345;BME280;47216;42.656;23.232;2023-03-26T08:29:49;93575.03;;;12.81;44.98
61345;BME280;47216;42.656;23.232;2023-03-26T08:32:20;93589.97;;;12.81;45.06
61345;BME280;47216;42.656;23.232;2023-03-26T08:34:47;93589.19;;;12.80;45.16
61345;BME280;47216;42.656;23.232;2023-03-26T08:37:14;93584.16;;;12.89;45.42
61345;BME280;47216;42.656;23.232;2023-03-26T08:39:41;93573.69;;;12.94;45.07
61345;BME280;47216;42.656;23.232;2023-03-26T08:42:37;93580.03;;;12.78;45.40
61345;BME280;47216;42.656;23.232;2023-03-26T08:54:46;93582.84;;;12.97;46.01
61345;BME280;47216;42.656;23.232;2023-03-26T08:57:39;93582.28;;;13.00;45.91
61345;BME280;47216;42.656;23.232;2023-03-26T09:03:21;93594.41;;;12.80;45.60
61345;BME280;47216;42.656;23.232;2023-03-26T09:06:17;93592.53;;;12.91;46.39
61345;BME280;47216;42.656;23.232;2023-03-26T09:12:23;93583.56;;;13.08;46.63
61345;BME280;47216;42.656;23.232;2023-03-26T09:15:24;93577.25;;;13.14;45.16
61345;BME280;47216;42.656;23.232;2023-03-26T09:18:08;93576.69;;;13.22;46.05
61345;BME280;47216;42.656;23.232;2023-03-26T09:21:30;93574.03;;;13.32;44.70
61345;BME280;47216;42.656;23.232;2023-03-26T09:24:13;93561.91;;;13.47;44.05
61345;BME280;47216;42.656;23.232;2023-03-26T09:26:47;93557.69;;;13.51;43.74
61345;BME280;47216;42.656;23.232;2023-03-26T09:29:50;93565.34;;;13.47;43.97
61345;BME280;47216;42.656;23.232;2023-03-26T09:38:50;93566.22;;;13.22;41.39
61345;BME280;47216;42.656;23.232;2023-03-26T09:41:29;93558.34;;;13.32;41.28
61345;BME280;47216;42.656;23.232;2023-03-26T09:44:37;93560.91;;;13.37;41.02
61345;BME280;47216;42.656;23.232;2023-03-26T09:50:32;93559.28;;;13.47;41.47
61345;BME280;47216;42.656;23.232;2023-03-26T09:56:17;93550.69;;;13.80;42.04
61345;BME280;47216;42.656;23.232;2023-03-26T09:58:57;93555.75;;;14.01;41.45
61345;BME280;47216;42.656;23.232;2023-03-26T10:01:34;93551.25;;;14.06;39.73
61345;BME280;47216;42.656;23.232;2023-03-26T10:04:32;93543.75;;;13.95;39.00
61345;BME280;47216;42.656;23.232;2023-03-26T10:07:11;93535.47;;;13.82;38.87
61345;BME280;47216;42.656;23.232;2023-03-26T10:09:50;93532.53;;;13.84;40.25
61345;BME280;47216;42.656;23.232;2023-03-26T10:12:26;93523.53;;;14.00;39.76
61345;BME280;47216;42.656;23.232;2023-03-26T10:15:16;93524.13;;;14.16;38.06
61345;BME280;47216;42.656;23.232;2023-03-26T10:17:55;93516.13;;;14.32;37.34
61345;BME280;47216;42.656;23.232;2023-03-26T10:20:34;93513.50;;;14.32;36.46
61345;BME280;47216;42.656;23.232;2023-03-26T10:23:18;93508.81;;;14.28;37.20
61345;BME280;47216;42.656;23.232;2023-03-26T10:26:11;93504.41;;;14.48;37.55
61345;BME280;47216;42.656;23.232;2023-03-26T10:29:00;93504.53;;;14.62;36.36
61345;BME280;47216;42.656;23.232;2023-03-26T10:31:35;93507.09;;;14.67;35.92
61345;BME280;47216;42.656;23.232;2023-03-26T10:34:13;93508.34;;;14.75;34.72
61345;BME280;47216;42.656;23.232;2023-03-26T10:36:51;93495.22;;;14.75;35.75
61345;BME280;47216;42.656;23.232;2023-03-26T10:39:45;93492.19;;;14.86;34.86
61345;BME280;47216;42.656;23.232;2023-03-26T10:42:30;93479.75;;;14.73;33.52
61345;BME280;47216;42.656;23.232;2023-03-26T10:45:25;93490.00;;;14.69;33.15
61345;BME280;47216;42.656;23.232;2023-03-26T10:48:15;93474.25;;;14.69;32.96
61345;BME280;47216;42.656;23.232;2023-03-26T10:50:51;93478.53;;;14.65;32.69
61345;BME280;47216;42.656;23.232;2023-03-26T10:53:27;93480.91;;;14.62;32.44
61345;BME280;47216;42.656;23.232;2023-03-26T10:56:00;93472.72;;;14.68;32.31
61345;BME280;47216;42.656;23.232;2023-03-26T10:58:28;93469.00;;;14.69;32.34
61345;BME280;47216;42.656;23.232;2023-03-26T11:00:59;93457.81;;;14.83;32.55
61345;BME280;47216;42.656;23.232;2023-03-26T11:03:47;93457.56;;;15.03;33.55
61345;BME280;47216;42.656;23.232;2023-03-26T11:06:29;93477.34;;;15.33;32.24
61345;BME280;47216;42.656;23.232;2023-03-26T11:09:06;93461.38;;;15.30;33.05
61345;BME280;47216;42.656;23.232;2023-03-26T11:11:39;93458.13;;;15.52;34.21
61345;BME280;47216;42.656;23.232;2023-03-26T11:14:14;93461.66;;;15.61;33.01
61345;BME280;47216;42.656;23.232;2023-03-26T11:16:53;93463.03;;;15.59;31.82
61345;BME280;47216;42.656;23.232;2023-03-26T11:19:27;93462.63;;;15.51;32.26
61345;BME280;47216;42.656;23.232;2023-03-26T11:22:00;93454.56;;;15.62;33.38
61345;BME280;47216;42.656;23.232;2023-03-26T11:24:45;93463.19;;;15.48;32.26
61345;BME280;47216;42.656;23.232;2023-03-26T11:27:23;93431.81;;;15.38;34.05
61345;BME280;47216;42.656;23.232;2023-03-26T11:30:02;93440.97;;;15.41;33.68
61345;BME280;47216;42.656;23.232;2023-03-26T11:32:40;93429.34;;;15.61;34.10
61345;BME280;47216;42.656;23.232;2023-03-26T11:35:16;93429.59;;;15.78;34.37
61345;BME280;47216;42.656;23.232;2023-03-26T11:37:47;93427.38;;;15.52;32.97
61345;BME280;47216;42.656;23.232;2023-03-26T11:40:20;93424.69;;;15.58;33.76
61345;BME280;47216;42.656;23.232;2023-03-26T11:42:50;93414.31;;;15.47;34.12
61345;BME280;47216;42.656;23.232;2023-03-26T11:45:21;93410.38;;;15.64;34.71
61345;BME280;47216;42.656;23.232;2023-03-26T11:47:52;93399.13;;;15.77;34.88
61345;BME280;47216;42.656;23.232;2023-03-26T11:50:24;93389.91;;;15.93;34.47
61345;BME280;47216;42.656;23.232;2023-03-26T11:52:53;93376.84;;;16.16;32.54
61345;BME280;47216;42.656;23.232;2023-03-26T11:55:24;93366.59;;;16.28;32.35
61345;BME280;47216;42.656;23.232;2023-03-26T11:57:53;93373.34;;;16.34;30.80
61345;BME280;47216;42.656;23.232;2023-03-26T12:00:23;93377.84;;;16.20;31.28
61345;BME280;47216;42.656;23.232;2023-03-26T12:02:55;93366.50;;;16.20;31.33
61345;BME280;47216;42.656;23.232;2023-03-26T12:05:23;93348.00;;;16.38;31.57
61345;BME280;47216;42.656;23.232;2023-03-26T12:07:55;93349.38;;;16.36;32.58
61345;BME280;47216;42.656;23.232;2023-03-26T12:10:27;93365.16;;;16.22;30.03
61345;BME280;47216;42.656;23.232;2023-03-26T12:12:57;93357.72;;;16.24;30.03
61345;BME280;47216;42.656;23.232;2023-03-26T12:15:25;93341.75;;;16.34;28.94
61345;BME280;47216;42.656;23.232;2023-03-26T12:17:54;93344.38;;;16.34;30.10
61345;BME280;47216;42.656;23.232;2023-03-26T12:20:33;93330.63;;;16.37;29.55
61345;BME280;47216;42.656;23.232;2023-03-26T12:23:02;93344.50;;;16.29;27.34
61345;BME280;47216;42.656;23.232;2023-03-26T12:25:32;93345.06;;;16.26;27.58
61345;BME280;47216;42.656;23.232;2023-03-26T12:28:01;93322.97;;;16.27;28.08
61345;BME280;47216;42.656;23.232;2023-03-26T12:30:29;93322.53;;;16.48;28.76
61345;BME280;47216;42.656;23.232;2023-03-26T12:32:59;93321.59;;;16.66;28.27
61345;BME280;47216;42.656;23.232;2023-03-26T12:35:30;93317.75;;;16.50;28.76
61345;BME280;47216;42.656;23.232;2023-03-26T12:38:14;93316.75;;;16.59;25.74
61345;BME280;47216;42.656;23.232;2023-03-26T12:40:42;93308.31;;;16.71;26.93
61345;BME280;47216;42.656;23.232;2023-03-26T12:43:20;93306.78;;;16.93;27.49
61345;BME280;47216;42.656;23.232;2023-03-26T12:45:50;93304.50;;;17.00;28.45
61345;BME280;47216;42.656;23.232;2023-03-26T12:48:20;93309.47;;;17.01;28.11
61345;BME280;47216;42.656;23.232;2023-03-26T12:51:02;93299.38;;;16.95;28.83
61345;BME280;47216;42.656;23.232;2023-03-26T12:53:41;93295.56;;;17.10;29.77
61345;BME280;47216;42.656;23.232;2023-03-26T12:56:18;93292.84;;;17.23;30.54
61345;BME280;47216;42.656;23.232;2023-03-26T12:59:00;93298.56;;;17.48;31.38
61345;BME280;47216;42.656;23.232;2023-03-26T13:01:39;93295.94;;;17.48;29.13
61345;BME280;47216;42.656;23.232;2023-03-26T13:07:02;93301.53;;;17.55;27.88
61345;BME280;47216;42.656;23.232;2023-03-26T13:09:54;93284.28;;;17.40;27.09
61345;BME280;47216;42.656;23.232;2023-03-26T13:12:32;93286.47;;;17.47;26.69
61345;BME280;47216;42.656;23.232;2023-03-26T13:15:16;93284.22;;;17.63;27.27
61345;BME280;47216;42.656;23.232;2023-03-26T13:17:54;93286.50;;;17.87;27.51
61345;BME280;47216;42.656;23.232;2023-03-26T13:20:26;93294.53;;;17.91;26.85
61345;BME280;47216;42.656;23.232;2023-03-26T13:23:01;93279.84;;;17.98;27.72
61345;BME280;47216;42.656;23.232;2023-03-26T13:25:37;93285.75;;;18.04;27.00
61345;BME280;47216;42.656;23.232;2023-03-26T13:28:18;93274.91;;;18.14;27.05
61345;BME280;47216;42.656;23.232;2023-03-26T13:30:57;93298.78;;;18.09;26.69
61345;BME280;47216;42.656;23.232;2023-03-26T13:33:37;93279.00;;;17.80;27.70
61345;BME280;47216;42.656;23.232;2023-03-26T13:36:12;93279.34;;;17.88;27.82
61345;BME280;47216;42.656;23.232;2023-03-26T13:38:50;93271.78;;;18.03;27.70
61345;BME280;47216;42.656;23.232;2023-03-26T13:41:30;93283.25;;;17.99;27.59
61345;BME280;47216;42.656;23.232;2023-03-26T13:44:08;93275.31;;;17.81;26.50
61345;BME280;47216;42.656;23.232;2023-03-26T13:46:44;93275.00;;;17.92;27.30
61345;BME280;47216;42.656;23.232;2023-03-26T13:49:14;93274.25;;;18.00;27.09
61345;BME280;47216;42.656;23.232;2023-03-26T13:51:44;93268.69;;;18.10;26.05